Aérodrome :
LOGIN :

S'inscrire | Disclaimer

   EN    FR    IT 

 










Légende :    VFR   VFR Marginal   IFR   IFR Intensif   IFR Très Intensif
Visi : 
Plafond : 
>= 8 km
>= 3000ft
5 à 8 km
1000 à 3000 ft
1500m à 5 km
500 à 1000 ft
800 à 1500m
200 à 500 ft
< 800m
< 200 ft
Symboles :   Orages  Brouillard  Fortes neiges  Fortes précipitations  Vent > 20 kt
SIGMETs :   Divers  Orages  Givrage  Turbulence  Onde Orograph.  Cendres Volcan.






- Altitude de l'aérodrome : 357 ft
- Code IATA : TUF


LFOT - Tours

DERNIER METAR :
  • 272130Z AUTO 28004KT CAVOK 04/01 Q1018 NOSIG

METARs EXPIRÉS :
  • 272100Z AUTO 28005KT CAVOK 05/01 Q1018 NOSIG
  • 272030Z AUTO 27006KT CAVOK 05/01 Q1017 NOSIG
  • 272000Z AUTO 27005KT CAVOK 05/02 Q1017 NOSIG
  • 271930Z AUTO 28005KT CAVOK 06/02 Q1016 NOSIG
  • 271900Z AUTO 28005KT 9999 FEW034 06/02 Q1016 NOSIG

TAF TAF LFOT
Valide du 27 à 18h jusqu'au 28 à 18h UTC


271700Z 2718/2818 30010KT CAVOK
BECMG 2723/2801 16003KT
TEMPO 2801/2806 4000 MIFG
PROB30
TEMPO 2804/2806 0600 FG VV///
BECMG 2807/2810 20013KT -RA BKN012
TEMPO 2810/2817 2500 -RADZ OVC004



MET'MAP, la Météo Aéronautique d'un coup d'oeil ! - Copyright ORBIFLY Décembre 2007 - Disclaimer

ORBIFLY MET'MAP TEAM :

Programmation & Développement : Alexandra Zaïnal
Sur une idée originale de : Baudouin d'Aumeries
Assistance à la programmation : Marc-Olivier Méhu
Soutien technique & logistique : Manuel Goepfert

Contact : metmap@orbifly.com




SOURCES & CREDITS :

   NOAA